Terminal Aerodrome Forecast
Issued by NWS North Platte, NE

Home | Current Version | Previous Version | Text Only | Print | Product List | Glossary On
Versions: 1 2 3 4 5 6 7 8 9 10 11 12 13 14
000
FTUS43 KLBF 182300
TAFVTN
TAF
KVTN 182320Z 1900/1924 28013KT P6SM SCT050 BKN100
     FM190300 30014G23KT P6SM OVC050
     FM190600 31015G23KT P6SM OVC020
     FM191000 32014G21KT P6SM SCT008 OVC015
     FM191700 32011KT P6SM BKN025
     FM192000 31012KT P6SM SCT030=

USA.gov is the U.S. government's official web portal to all federal, state and local government web resources and services.